createdAt,value
2018-04-14T00:01:11.144Z,13.40
2018-04-14T00:03:40.247Z,13.03
2018-04-14T00:06:09.552Z,13.43
2018-04-14T00:08:38.803Z,13.97
2018-04-14T00:11:08.003Z,13.07
2018-04-14T00:13:37.077Z,13.97
2018-04-14T00:16:06.139Z,13.10
2018-04-14T00:18:35.251Z,13.43
2018-04-14T00:21:04.384Z,14.07
2018-04-14T00:23:33.344Z,14.63
2018-04-14T00:26:02.479Z,15.07
2018-04-14T00:28:31.765Z,15.13
2018-04-14T00:31:00.879Z,14.23
2018-04-14T00:33:30.125Z,15.30
2018-04-14T00:35:59.181Z,14.60
2018-04-14T00:38:28.343Z,15.57
2018-04-14T00:40:57.611Z,15.73
2018-04-14T00:43:26.687Z,17.00
2018-04-14T00:45:55.868Z,14.87
2018-04-14T00:48:25.000Z,16.50
2018-04-14T00:50:54.288Z,16.27
2018-04-14T00:53:34.587Z,14.67
2018-04-14T00:56:03.591Z,15.60
2018-04-14T00:58:32.595Z,15.10
2018-04-14T01:01:01.606Z,16.57
2018-04-14T01:03:31.543Z,15.93
2018-04-14T01:06:00.606Z,15.87
2018-04-14T01:08:30.036Z,15.90
2018-04-14T01:10:59.091Z,16.43
2018-04-14T01:13:28.324Z,14.80
2018-04-14T01:15:57.499Z,14.87
2018-04-14T01:18:26.911Z,15.40
2018-04-14T01:20:56.061Z,14.97
2018-04-14T01:23:25.188Z,15.47
2018-04-14T01:25:54.402Z,14.20
2018-04-14T01:28:23.392Z,14.83
2018-04-14T01:30:52.341Z,13.77
2018-04-14T01:33:21.336Z,14.03
2018-04-14T01:35:50.331Z,12.53
2018-04-14T01:38:19.559Z,14.00
2018-04-14T01:40:48.625Z,15.00
2018-04-14T01:43:17.755Z,15.47
2018-04-14T01:45:46.815Z,13.87
2018-04-14T01:48:16.151Z,15.00
2018-04-14T01:50:45.200Z,15.00
2018-04-14T01:53:14.141Z,14.73
2018-04-14T01:55:43.338Z,14.77
2018-04-14T01:58:12.705Z,15.17
2018-04-14T02:00:41.895Z,16.67
2018-04-14T02:03:10.992Z,14.73
2018-04-14T02:05:40.291Z,16.93
2018-04-14T02:08:09.453Z,15.40
2018-04-14T02:10:38.496Z,13.17
2018-04-14T02:13:07.608Z,13.20
2018-04-14T02:15:36.701Z,12.63
2018-04-14T02:18:05.876Z,13.27
2018-04-14T02:20:35.077Z,13.13
2018-04-14T02:23:04.045Z,14.07
2018-04-14T02:25:33.077Z,13.47
2018-04-14T02:28:02.207Z,13.00
2018-04-14T02:30:31.212Z,13.10
2018-04-14T02:33:00.477Z,13.43
2018-04-14T02:35:29.960Z,11.77
2018-04-14T02:37:59.057Z,12.67
2018-04-14T02:40:28.292Z,12.67
2018-04-14T02:42:57.428Z,12.63
2018-04-14T02:45:26.444Z,12.97
2018-04-14T02:47:55.452Z,12.33
2018-04-14T02:50:24.645Z,12.23
2018-04-14T02:52:53.753Z,12.87
2018-04-14T02:55:22.972Z,12.50
2018-04-14T02:57:52.135Z,12.90
2018-04-14T03:00:21.237Z,12.90
2018-04-14T03:02:50.320Z,12.60
2018-04-14T03:05:19.373Z,12.30
2018-04-14T03:07:48.570Z,14.00
2018-04-14T03:10:17.733Z,13.33
2018-04-14T03:12:46.673Z,12.10
2018-04-14T03:15:15.757Z,12.53
2018-04-14T03:17:44.807Z,12.90
2018-04-14T03:20:14.144Z,11.57
2018-04-14T03:22:43.188Z,11.03
2018-04-14T03:25:12.323Z,11.27
2018-04-14T03:27:41.844Z,10.40
2018-04-14T03:30:11.237Z,10.90
2018-04-14T03:32:40.299Z,10.80
2018-04-14T03:35:09.636Z,12.27
2018-04-14T03:37:38.695Z,11.60
2018-04-14T03:40:07.929Z,11.10
2018-04-14T03:42:37.184Z,11.07
2018-04-14T03:45:06.389Z,10.83
2018-04-14T03:47:35.644Z,10.80
2018-04-14T03:50:05.177Z,10.60
2018-04-14T03:52:34.451Z,11.30
2018-04-14T03:55:04.160Z,11.17
2018-04-14T03:57:33.300Z,12.13
2018-04-14T04:00:02.425Z,12.50
2018-04-14T04:02:31.492Z,13.33
2018-04-14T04:05:00.747Z,11.63
2018-04-14T04:07:29.797Z,12.57
2018-04-14T04:09:58.991Z,12.03
2018-04-14T04:12:28.114Z,12.13
2018-04-14T04:14:57.053Z,10.50
2018-04-14T04:17:26.207Z,12.23
2018-04-14T04:20:06.849Z,10.23
2018-04-14T04:22:47.172Z,11.27
2018-04-14T04:25:41.756Z,11.30
2018-04-14T04:28:10.484Z,9.57
2018-04-14T04:30:39.059Z,9.73
2018-04-14T04:33:07.688Z,9.47
2018-04-14T04:35:36.330Z,9.70
2018-04-14T04:38:04.938Z,9.13
2018-04-14T04:40:33.499Z,9.43
2018-04-14T04:43:02.148Z,8.97
2018-04-14T04:45:30.773Z,8.20
2018-04-14T04:47:59.512Z,7.57
2018-04-14T04:50:28.147Z,7.33
2018-04-14T04:52:56.941Z,8.23
2018-04-14T04:55:25.507Z,9.33
2018-04-14T04:57:54.114Z,8.83
2018-04-14T05:00:22.907Z,8.90
2018-04-14T05:02:51.524Z,9.40
2018-04-14T05:05:20.117Z,9.70
2018-04-14T05:07:48.800Z,9.10
2018-04-14T05:10:17.371Z,9.47
2018-04-14T05:12:46.016Z,9.90
2018-04-14T05:15:14.644Z,10.47
2018-04-14T05:17:43.284Z,11.13
2018-04-14T05:20:12.045Z,14.20
2018-04-14T05:22:40.717Z,11.73
2018-04-14T05:25:09.301Z,13.00
2018-04-14T05:27:38.030Z,12.60
2018-04-14T05:30:06.671Z,13.07
2018-04-14T05:32:35.314Z,11.33
2018-04-14T05:35:03.957Z,10.43
2018-04-14T05:37:32.602Z,11.10
2018-04-14T05:40:01.173Z,12.10
2018-04-14T05:42:29.819Z,11.93
2018-04-14T05:44:58.437Z,13.13
2018-04-14T05:47:27.063Z,14.17
2018-04-14T05:49:55.720Z,13.37
2018-04-14T05:52:24.385Z,11.67
2018-04-14T05:54:53.068Z,15.77
2018-04-14T05:57:21.725Z,14.60
2018-04-14T05:59:50.453Z,13.17
2018-04-14T06:02:19.066Z,14.07
2018-04-14T06:04:47.712Z,11.37
2018-04-14T06:07:16.360Z,12.80
2018-04-14T06:09:44.949Z,14.47
2018-04-14T06:12:13.530Z,15.30
2018-04-14T06:14:42.110Z,15.27
2018-04-14T06:17:10.700Z,13.70
2018-04-14T06:19:39.433Z,10.67
2018-04-14T06:22:08.142Z,13.60
2018-04-14T06:24:36.730Z,13.40
2018-04-14T06:27:05.338Z,13.10
2018-04-14T06:29:33.960Z,9.57
2018-04-14T06:32:02.610Z,11.30
2018-04-14T06:34:31.390Z,9.10
2018-04-14T06:37:00.035Z,8.30
2018-04-14T06:39:28.621Z,9.30
2018-04-14T06:41:57.247Z,10.47
2018-04-14T06:44:25.935Z,9.00
2018-04-14T06:46:54.781Z,9.87
2018-04-14T06:49:23.405Z,10.80
2018-04-14T06:51:52.021Z,9.40
2018-04-14T06:54:20.776Z,10.70
2018-04-14T06:56:49.360Z,10.23
2018-04-14T06:59:17.919Z,11.07
2018-04-14T07:01:46.657Z,9.00
2018-04-14T07:04:15.260Z,8.23
2018-04-14T07:06:43.847Z,8.07
2018-04-14T07:09:12.493Z,9.50
2018-04-14T07:11:41.124Z,9.80
2018-04-14T07:14:09.769Z,9.20
2018-04-14T07:16:38.445Z,8.77
2018-04-14T07:19:07.387Z,8.60
2018-04-14T07:21:35.908Z,8.00
2018-04-14T07:24:04.665Z,8.57
2018-04-14T07:26:33.198Z,9.23
2018-04-14T07:29:02.072Z,9.13
2018-04-14T07:31:30.735Z,9.90
2018-04-14T07:33:59.300Z,9.80
2018-04-14T07:36:27.944Z,8.40
2018-04-14T07:38:56.473Z,7.47
2018-04-14T07:41:25.070Z,8.40
2018-04-14T07:43:53.697Z,8.03
2018-04-14T07:46:22.288Z,8.60
2018-04-14T07:48:50.904Z,8.37
2018-04-14T07:51:19.635Z,7.83
2018-04-14T07:53:48.593Z,8.37
2018-04-14T07:56:17.168Z,8.23
2018-04-14T07:58:45.817Z,7.87
2018-04-14T08:01:14.449Z,8.90
2018-04-14T08:03:43.170Z,7.17
2018-04-14T08:06:11.899Z,7.57
2018-04-14T08:08:40.617Z,7.30
2018-04-14T08:11:09.295Z,7.20
2018-04-14T08:13:38.052Z,6.57
2018-04-14T08:16:06.677Z,7.07
2018-04-14T08:18:35.400Z,6.93
2018-04-14T08:21:04.079Z,6.90
2018-04-14T08:23:32.784Z,7.13
2018-04-14T08:26:01.322Z,6.63
2018-04-14T08:28:30.361Z,7.17
2018-04-14T08:30:59.145Z,6.60
2018-04-14T08:33:27.775Z,7.80
2018-04-14T08:35:56.415Z,6.50
2018-04-14T08:38:25.117Z,6.97
2018-04-14T08:40:53.792Z,6.50
2018-04-14T08:43:22.420Z,6.70
2018-04-14T08:45:51.071Z,6.50
2018-04-14T08:48:19.813Z,6.67
2018-04-14T08:50:48.560Z,7.47
2018-04-14T08:53:17.277Z,8.40
2018-04-14T08:55:45.910Z,7.40
2018-04-14T08:58:14.599Z,7.60
2018-04-14T09:00:43.223Z,7.37
2018-04-14T09:03:11.909Z,7.73
2018-04-14T09:05:40.495Z,7.73
2018-04-14T09:08:09.232Z,7.10
2018-04-14T09:10:37.877Z,7.73
2018-04-14T09:13:06.656Z,7.17
2018-04-14T09:15:35.284Z,7.73
2018-04-14T09:18:04.503Z,7.23
2018-04-14T09:20:33.672Z,6.10
2018-04-14T09:23:02.896Z,5.60
2018-04-14T09:25:31.961Z,5.73
2018-04-14T09:28:01.178Z,5.73
2018-04-14T09:30:30.333Z,5.87
2018-04-14T09:32:59.383Z,5.47
2018-04-14T09:35:28.430Z,5.80
2018-04-14T09:37:57.619Z,7.37
2018-04-14T09:40:26.722Z,7.40
2018-04-14T09:42:55.868Z,6.70
2018-04-14T09:45:25.047Z,6.30
2018-04-14T09:47:54.173Z,6.30
2018-04-14T09:50:23.263Z,7.30
2018-04-14T09:52:52.400Z,6.73
2018-04-14T09:55:21.344Z,7.17
2018-04-14T09:57:50.449Z,6.70
2018-04-14T10:00:25.417Z,6.37
2018-04-14T10:03:00.710Z,5.87
2018-04-14T10:05:29.864Z,5.67
2018-04-14T10:07:58.960Z,6.03
2018-04-14T10:10:28.128Z,6.30
2018-04-14T10:12:57.356Z,6.33
2018-04-14T10:15:26.617Z,6.90
2018-04-14T10:17:55.599Z,7.57
2018-04-14T10:20:24.743Z,6.93
2018-04-14T10:22:53.940Z,6.30
2018-04-14T10:25:23.102Z,5.70
2018-04-14T10:27:52.239Z,4.67
2018-04-14T10:30:21.397Z,4.80
2018-04-14T10:32:50.492Z,4.37
2018-04-14T10:35:19.515Z,5.50
2018-04-14T10:37:48.674Z,5.03
2018-04-14T10:40:17.681Z,5.20
2018-04-14T10:42:46.756Z,5.10
2018-04-14T10:45:15.817Z,4.97
2018-04-14T10:47:44.839Z,4.70
2018-04-14T10:50:13.841Z,4.60
2018-04-14T10:52:43.039Z,4.83
2018-04-14T10:55:12.235Z,5.00
2018-04-14T10:57:41.503Z,5.53
2018-04-14T11:00:10.531Z,5.60
2018-04-14T11:02:39.600Z,5.27
2018-04-14T11:05:08.868Z,5.13
2018-04-14T11:07:37.991Z,5.33
2018-04-14T11:10:07.129Z,5.40
2018-04-14T11:12:36.283Z,5.87
2018-04-14T11:15:05.540Z,7.00
2018-04-14T11:17:34.503Z,6.03
2018-04-14T11:20:03.686Z,6.70
2018-04-14T11:22:32.829Z,5.77
2018-04-14T11:25:01.996Z,5.07
2018-04-14T11:27:31.122Z,6.37
2018-04-14T11:30:00.234Z,5.53
2018-04-14T11:32:29.623Z,5.40
2018-04-14T11:34:58.692Z,5.50
2018-04-14T11:37:27.771Z,5.13
2018-04-14T11:39:57.008Z,4.80
2018-04-14T11:42:26.217Z,4.80
2018-04-14T11:44:55.352Z,5.20
2018-04-14T11:47:25.078Z,6.23
2018-04-14T11:49:54.179Z,5.70
2018-04-14T11:52:23.356Z,5.90
2018-04-14T11:54:52.701Z,5.90
2018-04-14T11:57:21.810Z,6.07
2018-04-14T11:59:50.800Z,6.23
2018-04-14T12:02:20.106Z,6.40
2018-04-14T12:04:49.332Z,6.43
2018-04-14T12:07:18.688Z,6.37
2018-04-14T12:09:47.812Z,6.63
2018-04-14T12:12:16.765Z,7.20
2018-04-14T12:14:45.901Z,6.60
2018-04-14T12:17:14.924Z,7.40
2018-04-14T12:19:44.193Z,7.53
2018-04-14T12:22:13.161Z,7.00
2018-04-14T12:24:42.284Z,7.37
2018-04-14T12:27:11.433Z,7.10
2018-04-14T12:29:40.867Z,6.60
2018-04-14T12:32:10.034Z,6.70
2018-04-14T12:34:39.203Z,6.30
2018-04-14T12:37:08.459Z,5.97
2018-04-14T12:39:38.048Z,6.43
2018-04-14T12:42:06.993Z,7.13
2018-04-14T12:44:36.135Z,6.27
2018-04-14T12:47:05.484Z,7.10
2018-04-14T12:49:35.092Z,6.20
2018-04-14T12:52:04.251Z,6.07
2018-04-14T12:54:33.476Z,6.50
2018-04-14T12:57:02.585Z,5.90
2018-04-14T12:59:31.626Z,6.07
2018-04-14T13:02:00.821Z,6.70
2018-04-14T13:04:30.005Z,7.90
2018-04-14T13:06:59.117Z,7.00
2018-04-14T13:09:28.370Z,6.90
2018-04-14T13:11:57.504Z,7.03
2018-04-14T13:14:26.541Z,7.20
2018-04-14T13:16:56.416Z,6.57
2018-04-14T13:19:25.409Z,6.23
2018-04-14T13:21:54.608Z,6.80
2018-04-14T13:24:23.748Z,6.60
2018-04-14T13:26:52.913Z,6.50
2018-04-14T13:29:21.907Z,7.30
2018-04-14T13:31:50.942Z,6.50
2018-04-14T13:34:20.254Z,6.33
2018-04-14T13:36:49.345Z,7.57
2018-04-14T13:39:18.494Z,8.57
2018-04-14T13:41:47.755Z,7.67
2018-04-14T13:44:16.976Z,8.03
2018-04-14T13:46:46.263Z,8.10
2018-04-14T13:49:15.461Z,7.57
2018-04-14T13:51:45.572Z,8.83
2018-04-14T13:54:14.739Z,8.23
2018-04-14T13:56:43.767Z,7.33
2018-04-14T13:59:12.828Z,6.70
2018-04-14T14:01:41.992Z,7.40
2018-04-14T14:04:11.137Z,6.33
2018-04-14T14:06:40.283Z,6.83
2018-04-14T14:09:09.497Z,6.80
2018-04-14T14:11:38.636Z,6.30
2018-04-14T14:14:08.313Z,6.83
2018-04-14T14:16:37.535Z,6.33
2018-04-14T14:19:06.597Z,5.63
2018-04-14T14:21:35.843Z,6.07
2018-04-14T14:24:04.960Z,5.27
2018-04-14T14:26:34.076Z,5.80
2018-04-14T14:29:03.285Z,5.57
2018-04-14T14:31:32.475Z,5.40
2018-04-14T14:34:01.568Z,5.87
2018-04-14T14:36:30.672Z,5.33
2018-04-14T14:39:00.497Z,5.70
2018-04-14T14:41:29.612Z,5.27
2018-04-14T14:43:58.674Z,5.30
2018-04-14T14:46:27.972Z,5.63
2018-04-14T14:48:56.967Z,5.10
2018-04-14T14:51:26.676Z,5.17
2018-04-14T14:53:55.832Z,4.77
2018-04-14T14:56:24.976Z,4.90
2018-04-14T14:58:54.220Z,5.47
2018-04-14T15:01:23.296Z,5.10
2018-04-14T15:03:52.572Z,5.80
2018-04-14T15:06:21.718Z,6.37
2018-04-14T15:08:50.917Z,6.43
2018-04-14T15:11:19.956Z,7.63
2018-04-14T15:13:49.256Z,7.97
2018-04-14T15:16:18.499Z,6.83
2018-04-14T15:18:47.565Z,7.63
2018-04-14T15:21:16.567Z,8.50
2018-04-14T15:23:45.791Z,7.43
2018-04-14T15:26:14.826Z,7.07
2018-04-14T15:28:43.808Z,7.23
2018-04-14T15:31:12.887Z,6.83
2018-04-14T15:33:42.082Z,7.67
2018-04-14T15:36:11.235Z,8.27
2018-04-14T15:38:40.572Z,8.33
2018-04-14T15:41:09.593Z,8.60
2018-04-14T15:43:38.572Z,8.00
2018-04-14T15:46:07.975Z,8.73
2018-04-14T15:48:37.011Z,9.70
2018-04-14T15:51:06.375Z,11.00
2018-04-14T15:53:35.572Z,11.73
2018-04-14T15:56:04.727Z,12.17
2018-04-14T15:58:33.728Z,11.13
2018-04-14T16:01:02.917Z,12.43
2018-04-14T16:03:32.113Z,13.17
2018-04-14T16:06:01.250Z,13.43
2018-04-14T16:08:30.395Z,13.47
2018-04-14T16:10:59.651Z,14.33
2018-04-14T16:13:28.692Z,15.57
2018-04-14T16:15:58.013Z,16.53
2018-04-14T16:18:27.350Z,18.07
2018-04-14T16:20:56.500Z,19.07
2018-04-14T16:23:25.858Z,19.97
2018-04-14T16:25:55.098Z,21.13
2018-04-14T16:28:24.188Z,20.87
2018-04-14T16:30:53.236Z,20.83
2018-04-14T16:33:22.797Z,20.70
2018-04-14T16:35:51.768Z,22.30
2018-04-14T16:38:20.776Z,21.80
2018-04-14T16:40:49.827Z,22.63
2018-04-14T16:43:19.080Z,22.70
2018-04-14T16:45:48.169Z,26.00
2018-04-14T16:48:17.365Z,25.03
2018-04-14T16:50:46.626Z,27.53
2018-04-14T16:53:15.771Z,26.23
2018-04-14T16:55:44.861Z,25.10
2018-04-14T16:58:14.101Z,26.40
2018-04-14T17:00:43.173Z,28.73
2018-04-14T17:03:12.236Z,27.23
2018-04-14T17:05:41.305Z,26.03
2018-04-14T17:08:10.340Z,26.77
2018-04-14T17:10:39.640Z,26.17
2018-04-14T17:13:08.824Z,26.80
2018-04-14T17:15:38.547Z,26.90
2018-04-14T17:18:07.748Z,26.70
2018-04-14T17:20:37.006Z,26.00
2018-04-14T17:23:06.203Z,28.57
2018-04-14T17:25:35.270Z,28.40
2018-04-14T17:28:04.540Z,29.13
2018-04-14T17:30:33.597Z,30.47
2018-04-14T17:33:02.772Z,31.87
2018-04-14T17:35:31.888Z,29.80
2018-04-14T17:38:01.017Z,31.23
2018-04-14T17:40:30.244Z,33.03
2018-04-14T17:42:59.319Z,30.07
2018-04-14T17:45:28.474Z,29.23
2018-04-14T17:47:57.529Z,28.73
2018-04-14T17:50:26.772Z,29.70
2018-04-14T17:52:55.911Z,29.70
2018-04-14T17:55:25.010Z,29.07
2018-04-14T17:57:54.251Z,30.77
2018-04-14T18:00:23.520Z,28.47
2018-04-14T18:02:52.740Z,28.57
2018-04-14T18:05:22.069Z,28.90
2018-04-14T18:07:51.244Z,29.00
2018-04-14T18:10:20.404Z,29.87
2018-04-14T18:12:49.499Z,30.67
2018-04-14T18:15:18.596Z,31.17
2018-04-14T18:17:47.592Z,31.13
2018-04-14T18:20:16.760Z,29.90
2018-04-14T18:22:45.840Z,31.73
2018-04-14T18:25:15.107Z,31.47
2018-04-14T18:27:44.394Z,29.57
2018-04-14T18:30:13.531Z,30.27
2018-04-14T18:32:42.600Z,30.33
2018-04-14T18:35:11.793Z,29.93
2018-04-14T18:37:40.960Z,30.00
2018-04-14T18:40:10.213Z,29.80
2018-04-14T18:42:39.411Z,29.93
2018-04-14T18:45:08.712Z,31.37
2018-04-14T18:47:37.764Z,29.73
2018-04-14T18:50:06.871Z,28.13
2018-04-14T18:52:36.409Z,28.83
2018-04-14T18:55:05.464Z,27.83
2018-04-14T18:57:34.622Z,26.90
2018-04-14T19:00:03.866Z,27.87
2018-04-14T19:02:33.059Z,27.40
2018-04-14T19:05:02.460Z,28.63
2018-04-14T19:07:31.821Z,30.10
2018-04-14T19:10:00.969Z,30.20
2018-04-14T19:12:30.329Z,29.93
2018-04-14T19:14:59.512Z,29.50
2018-04-14T19:17:28.694Z,30.20
2018-04-14T19:19:57.817Z,28.73
2018-04-14T19:22:26.819Z,30.23
2018-04-14T19:24:55.785Z,30.93
2018-04-14T19:27:24.788Z,29.77
2018-04-14T19:29:53.897Z,28.97
2018-04-14T19:32:22.985Z,28.93
2018-04-14T19:34:51.976Z,28.27
2018-04-14T19:37:21.032Z,26.30
2018-04-14T19:39:50.105Z,25.53
2018-04-14T19:42:19.217Z,25.37
2018-04-14T19:44:48.556Z,25.00
2018-04-14T19:47:17.803Z,25.40
2018-04-14T19:49:46.851Z,26.43
2018-04-14T19:52:16.094Z,25.10
2018-04-14T19:54:45.247Z,26.80
2018-04-14T19:57:14.397Z,24.70
2018-04-14T19:59:43.469Z,26.23
2018-04-14T20:02:12.612Z,25.40
2018-04-14T20:04:41.745Z,26.90
2018-04-14T20:07:11.022Z,28.83
2018-04-14T20:09:40.336Z,26.63
2018-04-14T20:12:09.588Z,29.43
2018-04-14T20:14:38.673Z,28.17
2018-04-14T20:17:07.861Z,30.33
2018-04-14T20:19:37.232Z,31.43
2018-04-14T20:22:06.539Z,30.33
2018-04-14T20:24:35.853Z,32.80
2018-04-14T20:27:05.257Z,31.73
2018-04-14T20:29:34.435Z,32.27
2018-04-14T20:32:03.487Z,32.80
2018-04-14T20:34:32.653Z,33.17
2018-04-14T20:37:01.981Z,30.53
2018-04-14T20:39:31.001Z,32.57
2018-04-14T20:42:00.528Z,29.73
2018-04-14T20:44:29.788Z,27.70
2018-04-14T20:46:58.936Z,26.87
2018-04-14T20:49:28.124Z,26.37
2018-04-14T20:51:57.286Z,26.27
2018-04-14T20:54:26.841Z,25.60
2018-04-14T20:56:56.019Z,25.40
2018-04-14T20:59:25.327Z,25.90
2018-04-14T21:01:54.325Z,26.73
2018-04-14T21:04:23.421Z,26.03
2018-04-14T21:06:52.571Z,26.27
2018-04-14T21:09:22.225Z,24.90
2018-04-14T21:11:51.273Z,25.83
2018-04-14T21:14:21.864Z,26.27
2018-04-14T21:16:51.055Z,25.27
2018-04-14T21:19:20.252Z,25.80
2018-04-14T21:21:49.347Z,23.63
2018-04-14T21:24:18.705Z,24.33
2018-04-14T21:26:48.020Z,24.63
2018-04-14T21:29:17.148Z,25.50
2018-04-14T21:31:46.209Z,25.53
2018-04-14T21:34:15.395Z,25.07
2018-04-14T21:36:44.535Z,22.83
2018-04-14T21:39:13.535Z,24.07
2018-04-14T21:41:42.584Z,23.07
2018-04-14T21:44:11.667Z,23.97
2018-04-14T21:46:40.716Z,24.73
2018-04-14T21:49:09.785Z,24.97
2018-04-14T21:51:38.915Z,23.63
2018-04-14T21:54:08.110Z,24.37
2018-04-14T21:56:37.260Z,23.27
2018-04-14T21:59:06.499Z,24.57
2018-04-14T22:01:35.600Z,25.77
2018-04-14T22:04:04.847Z,25.90
2018-04-14T22:06:33.766Z,27.10
2018-04-14T22:09:02.988Z,27.07
2018-04-14T22:11:32.161Z,26.77
2018-04-14T22:14:01.285Z,28.23
2018-04-14T22:16:30.220Z,30.80
2018-04-14T22:18:59.311Z,27.77
2018-04-14T22:21:28.249Z,29.67
2018-04-14T22:23:57.332Z,29.50
2018-04-14T22:26:26.473Z,29.47
2018-04-14T22:28:55.556Z,31.20
2018-04-14T22:31:24.532Z,31.30
2018-04-14T22:33:53.525Z,30.53
2018-04-14T22:36:22.694Z,31.37
2018-04-14T22:38:51.889Z,31.83
2018-04-14T22:41:20.968Z,32.23
2018-04-14T22:43:50.202Z,30.90
2018-04-14T22:46:19.491Z,30.10
2018-04-14T22:48:48.474Z,31.13
2018-04-14T22:51:17.728Z,29.97
2018-04-14T22:53:46.893Z,28.83
2018-04-14T22:56:16.081Z,28.67
2018-04-14T22:58:45.321Z,29.57
2018-04-14T23:01:14.724Z,28.77
2018-04-14T23:03:43.924Z,30.03
2018-04-14T23:06:13.168Z,28.20
2018-04-14T23:08:42.379Z,27.57
2018-04-14T23:11:11.620Z,28.13
2018-04-14T23:13:40.784Z,27.43
2018-04-14T23:16:09.981Z,27.00
2018-04-14T23:18:39.019Z,26.97
2018-04-14T23:21:08.072Z,26.03
2018-04-14T23:23:38.577Z,27.47
2018-04-14T23:26:09.209Z,25.60
2018-04-14T23:28:40.659Z,25.53
2018-04-14T23:31:11.961Z,26.73
2018-04-14T23:33:42.041Z,27.30
2018-04-14T23:36:11.079Z,25.83
2018-04-14T23:38:40.135Z,26.73
2018-04-14T23:41:09.394Z,26.37
2018-04-14T23:43:38.650Z,27.20
2018-04-14T23:46:07.888Z,25.70
2018-04-14T23:48:37.019Z,26.93
2018-04-14T23:51:06.229Z,26.33
2018-04-14T23:53:35.381Z,27.20
2018-04-14T23:56:04.684Z,27.50
2018-04-14T23:58:33.964Z,27.23
